Time;durP1;ratioP1;P1;durP2;ratioP2;P2;SDS_P1;SDS_P2;PMS_P1;PMS_P2;Temp;Humidity;BMP_temperature;BMP_pressure;BME280_temperature;BME280_humidity;BME280_pressure;Samples;Min_cycle;Max_cycle;Signal;HPM_P1;HPM_P2
2024/04/13 00:03:34;;;;;;;;;19.33;18.00;;;;;;;;6490120;39;8958;-62
2024/04/13 00:09:42;;;;;;;;;14.00;13.00;;;;;;;;6489654;39;9003;-62
2024/04/13 00:15:57;;;;;;;;;13.67;13.67;;;;;;;;6490113;46;8960;-62
2024/04/13 00:22:01;;;;;;;;;19.00;16.00;;;;;;;;6489990;39;8963;-62
2024/04/13 00:28:17;;;;;;;;;22.00;19.00;;;;;;;;6489636;46;8866;-62
2024/04/13 00:34:28;;;;;;;;;21.67;20.00;;;;;;;;6489405;46;8876;-60
2024/04/13 00:40:43;;;;;;;;;22.00;18.33;;;;;;;;6490857;39;9676;-62
2024/04/13 00:47:13;;;;;;;;;15.67;14.00;;;;;;;;6490144;39;9009;-61
2024/04/13 00:53:18;;;;;;;;;13.33;12.33;;;;;;;;6489496;39;8886;-62
2024/04/13 00:59:34;;;;;;;;;14.00;12.67;;;;;;;;6490433;39;8884;-63
2024/04/13 01:05:38;;;;;;;;;18.33;13.67;;;;;;;;6489097;46;9005;-61
2024/04/13 01:12:09;;;;;;;;;12.00;11.00;;;;;;;;6489962;39;9067;-60
2024/04/13 01:18:17;;;;;;;;;14.00;11.67;;;;;;;;6489471;46;8870;-62
2024/04/13 01:24:21;;;;;;;;;13.33;13.00;;;;;;;;6490077;39;8873;-61
2024/04/13 01:30:31;;;;;;;;;14.00;11.33;;;;;;;;6489693;39;8901;-61
2024/04/13 01:36:36;;;;;;;;;14.67;13.00;;;;;;;;6490257;39;8995;-62
2024/04/13 01:42:45;;;;;;;;;14.00;12.33;;;;;;;;6489412;46;8976;-60
2024/04/13 01:48:49;;;;;;;;;10.67;10.67;;;;;;;;6488776;46;8965;-62
2024/04/13 01:55:00;;;;;;;;;12.00;12.00;;;;;;;;6489844;39;8863;-62
2024/04/13 02:01:08;;;;;;;;;13.33;13.00;;;;;;;;6489333;39;8945;-62
2024/04/13 02:07:13;;;;;;;;;12.33;10.67;;;;;;;;6489178;39;8867;-62
2024/04/13 02:13:40;;;;;;;;;13.67;13.67;;;;;;;;6490152;39;9480;-61
2024/04/13 02:20:04;;;;;;;;;18.00;16.00;;;;;;;;6489061;47;8966;-62
2024/04/13 02:26:09;;;;;;;;;17.00;15.00;;;;;;;;6488676;46;8910;-61
2024/04/13 02:32:21;;;;;;;;;16.00;13.33;;;;;;;;6489323;39;9507;-62
2024/04/13 02:38:34;;;;;;;;;16.67;13.67;;;;;;;;6494037;36;301873;-62
2024/04/13 02:44:36;;;;;;;;;12.33;12.00;;;;;;;;6488506;39;8877;-63
2024/04/13 02:51:07;;;;;;;;;12.33;12.33;;;;;;;;6489049;31;8882;-62
2024/04/13 02:57:17;;;;;;;;;12.67;12.67;;;;;;;;6488154;39;9418;-61
2024/04/13 03:03:28;;;;;;;;;12.33;12.33;;;;;;;;6488752;47;8902;-61
2024/04/13 03:09:31;;;;;;;;;11.00;9.67;;;;;;;;6488973;39;8912;-61
2024/04/13 03:15:38;;;;;;;;;13.00;12.33;;;;;;;;6490048;39;8874;-62
2024/04/13 03:21:46;;;;;;;;;15.00;13.33;;;;;;;;6489979;46;8983;-62
2024/04/13 03:27:56;;;;;;;;;11.33;11.33;;;;;;;;6490648;39;8944;-61
2024/04/13 03:34:07;;;;;;;;;13.33;13.33;;;;;;;;6491575;39;8952;-61
2024/04/13 03:40:19;;;;;;;;;15.67;15.00;;;;;;;;6489760;39;8937;-62
2024/04/13 03:46:36;;;;;;;;;17.00;13.33;;;;;;;;6490894;46;8917;-62
2024/04/13 03:52:41;;;;;;;;;11.33;11.33;;;;;;;;6491431;39;8955;-61
2024/04/13 03:58:49;;;;;;;;;12.67;12.00;;;;;;;;6490562;39;8901;-62
2024/04/13 04:04:59;;;;;;;;;11.00;11.00;;;;;;;;6490883;39;8974;-61
2024/04/13 04:11:10;;;;;;;;;13.00;12.00;;;;;;;;6488015;46;8885;-62
2024/04/13 04:17:15;;;;;;;;;11.67;11.33;;;;;;;;6490348;39;9502;-62
2024/04/13 04:23:21;;;;;;;;;13.33;12.00;;;;;;;;6489730;39;8928;-64
2024/04/13 04:29:34;;;;;;;;;16.33;13.00;;;;;;;;6490479;39;8882;-61
2024/04/13 04:35:42;;;;;;;;;17.00;15.00;;;;;;;;6488824;46;8905;-63
2024/04/13 04:41:46;;;;;;;;;15.00;15.00;;;;;;;;6490576;39;8997;-62
2024/04/13 04:47:51;;;;;;;;;14.33;14.33;;;;;;;;6490472;39;8916;-62
2024/04/13 04:54:11;;;;;;;;;16.67;15.00;;;;;;;;6489612;39;8921;-60
2024/04/13 05:00:19;;;;;;;;;19.00;17.67;;;;;;;;6490736;31;9036;-61
2024/04/13 05:06:31;;;;;;;;;9.00;9.00;;;;;;;;6489681;39;8957;-62
2024/04/13 05:12:38;;;;;;;;;13.00;12.67;;;;;;;;6489768;46;8924;-63
2024/04/13 05:18:49;;;;;;;;;14.00;13.00;;;;;;;;6488817;39;8965;-62
2024/04/13 05:24:57;;;;;;;;;15.33;14.00;;;;;;;;6489371;46;8925;-61
2024/04/13 05:31:20;;;;;;;;;15.67;14.00;;;;;;;;6490110;31;8961;-61
2024/04/13 05:37:27;;;;;;;;;20.33;17.33;;;;;;;;6488659;47;8884;-61
2024/04/13 05:43:53;;;;;;;;;14.33;14.00;;;;;;;;6490810;39;9534;-61
2024/04/13 05:50:05;;;;;;;;;18.00;16.33;;;;;;;;6489624;31;8967;-62
2024/04/13 05:56:12;;;;;;;;;16.67;15.00;;;;;;;;6490111;39;8849;-61
2024/04/13 06:02:31;;;;;;;;;15.00;13.33;;;;;;;;6488675;39;8975;-62
2024/04/13 06:08:38;;;;;;;;;12.67;12.67;;;;;;;;6489081;47;8924;-63
2024/04/13 06:15:05;;;;;;;;;14.00;12.67;;;;;;;;6488872;47;8893;-62
2024/04/13 06:21:12;;;;;;;;;14.00;12.00;;;;;;;;6488288;31;8854;-61
2024/04/13 06:27:18;;;;;;;;;13.67;13.00;;;;;;;;6488241;39;8889;-62
2024/04/13 06:33:30;;;;;;;;;14.67;14.67;;;;;;;;6488570;39;8889;-62
2024/04/13 06:39:35;;;;;;;;;12.00;11.00;;;;;;;;6489369;39;9520;-62
2024/04/13 06:45:54;;;;;;;;;15.00;13.00;;;;;;;;6488291;47;8969;-62
2024/04/13 06:52:44;;;;;;;;;14.67;10.33;;;;;;;;6490063;31;8897;-64
2024/04/13 06:59:15;;;;;;;;;10.00;10.00;;;;;;;;6493750;31;8829;-63
2024/04/13 07:05:33;;;;;;;;;12.00;10.50;;;;;;;;6489995;39;8979;-63
2024/04/13 07:11:42;;;;;;;;;11.75;11.75;;;;;;;;6490863;39;8909;-62
2024/04/13 07:17:53;;;;;;;;;11.25;11.25;;;;;;;;6491558;39;9508;-63
2024/04/13 07:24:04;;;;;;;;;10.75;10.25;;;;;;;;6490417;39;8901;-62
2024/04/13 07:30:10;;;;;;;;;9.50;7.00;;;;;;;;6490297;39;8901;-62
2024/04/13 07:36:13;;;;;;;;;6.00;6.00;;;;;;;;6490807;39;8979;-62
2024/04/13 07:42:19;;;;;;;;;7.50;7.00;;;;;;;;6490145;46;8928;-63
2024/04/13 07:48:29;;;;;;;;;12.00;8.00;;;;;;;;6491123;46;8909;-64
2024/04/13 07:54:40;;;;;;;;;9.75;8.75;;;;;;;;6490873;31;8913;-62
2024/04/13 08:00:47;;;;;;;;;8.75;7.75;;;;;;;;6129293;31;10001019;-62
2024/04/13 08:07:00;;;;;;;;;7.75;7.75;;;;;;;;6491140;39;8940;-62
2024/04/13 08:13:09;;;;;;;;;11.75;9.00;;;;;;;;6490620;39;8987;-62
2024/04/13 08:19:15;;;;;;;;;10.50;10.50;;;;;;;;6489954;46;8845;-62
2024/04/13 08:25:24;;;;;;;;;9.50;9.50;;;;;;;;6490488;31;8928;-61
2024/04/13 08:31:36;;;;;;;;;8.75;8.75;;;;;;;;6489619;31;8885;-63
2024/04/13 08:37:42;;;;;;;;;13.50;10.00;;;;;;;;6489789;31;9015;-62
2024/04/13 08:43:44;;;;;;;;;11.00;9.75;;;;;;;;6489392;39;8944;-62
2024/04/13 08:49:50;;;;;;;;;13.00;12.50;;;;;;;;6490087;39;8952;-65
2024/04/13 08:56:06;;;;;;;;;12.00;11.00;;;;;;;;6489774;39;8923;-61
2024/04/13 09:02:15;;;;;;;;;15.50;14.50;;;;;;;;6490699;31;8937;-63
2024/04/13 09:08:25;;;;;;;;;13.25;12.25;;;;;;;;6489101;31;8963;-61
2024/04/13 09:14:34;;;;;;;;;12.25;12.25;;;;;;;;6489391;46;8837;-64
2024/04/13 09:20:46;;;;;;;;;10.00;9.00;;;;;;;;6490149;39;9019;-64
2024/04/13 09:26:47;;;;;;;;;9.50;9.50;;;;;;;;6488548;39;10032;-61
2024/04/13 09:32:59;;;;;;;;;12.00;12.00;;;;;;;;6489479;46;8927;-62
2024/04/13 09:39:04;;;;;;;;;8.50;8.50;;;;;;;;6488289;39;8865;-61
2024/04/13 09:45:11;;;;;;;;;11.25;10.25;;;;;;;;6489207;46;8971;-61
2024/04/13 09:51:16;;;;;;;;;12.25;10.50;;;;;;;;6490710;31;9592;-64
2024/04/13 09:57:21;;;;;;;;;11.75;11.75;;;;;;;;6488476;46;9046;-62
2024/04/13 10:03:38;;;;;;;;;11.00;11.00;;;;;;;;6226317;31;10002316;-62
2024/04/13 10:10:13;;;;;;;;;14.00;13.00;;;;;;;;6490535;31;8983;-62
2024/04/13 10:16:23;;;;;;;;;13.25;11.00;;;;;;;;6489215;39;8886;-62
2024/04/13 10:22:28;;;;;;;;;14.00;12.50;;;;;;;;6488672;46;8896;-62
2024/04/13 10:28:34;;;;;;;;;12.33;11.33;;;;;;;;6491599;39;8913;-63
2024/04/13 10:34:40;;;;;;;;;13.50;12.25;;;;;;;;6491241;39;8971;-64
2024/04/13 10:40:44;;;;;;;;;14.25;14.25;;;;;;;;6491492;39;8988;-61
2024/04/13 10:46:48;;;;;;;;;14.25;14.25;;;;;;;;6491081;39;9075;-61
2024/04/13 10:52:54;;;;;;;;;14.25;14.25;;;;;;;;6490309;46;8889;-61
2024/04/13 10:59:13;;;;;;;;;12.75;12.75;;;;;;;;6491999;39;8857;-61
2024/04/13 11:05:20;;;;;;;;;13.00;12.25;;;;;;;;6490540;46;8953;-61
2024/04/13 11:11:28;;;;;;;;;12.00;12.00;;;;;;;;6490612;46;8904;-62
2024/04/13 11:17:34;;;;;;;;;13.25;13.25;;;;;;;;6491676;31;9565;-63
2024/04/13 11:23:40;;;;;;;;;13.50;13.50;;;;;;;;6490149;46;8944;-63
2024/04/13 11:29:43;;;;;;;;;14.25;14.25;;;;;;;;6491769;31;8889;-61
2024/04/13 11:36:00;;;;;;;;;14.50;14.50;;;;;;;;6489049;39;8877;-62
2024/04/13 11:42:06;;;;;;;;;15.25;13.50;;;;;;;;6491017;39;9054;-61
2024/04/13 11:48:11;;;;;;;;;12.25;12.25;;;;;;;;6490973;39;8949;-61
2024/04/13 11:54:13;;;;;;;;;14.50;13.50;;;;;;;;6490505;46;8882;-62
2024/04/13 12:00:18;;;;;;;;;15.00;14.00;;;;;;;;6491213;31;8932;-62
2024/04/13 12:06:23;;;;;;;;;15.75;14.75;;;;;;;;6490495;39;9559;-61
2024/04/13 12:12:26;;;;;;;;;15.25;12.50;;;;;;;;6490570;39;8857;-61
2024/04/13 12:18:31;;;;;;;;;11.00;11.00;;;;;;;;6490020;46;8890;-62
2024/04/13 12:24:38;;;;;;;;;15.00;15.00;;;;;;;;6489699;46;8932;-62
2024/04/13 12:30:42;;;;;;;;;13.50;13.50;;;;;;;;6490492;39;8961;-61
2024/04/13 12:36:50;;;;;;;;;13.25;11.50;;;;;;;;6490076;39;8861;-61
2024/04/13 12:42:53;;;;;;;;;19.75;16.50;;;;;;;;6490608;39;8945;-61
2024/04/13 12:48:59;;;;;;;;;17.75;14.75;;;;;;;;6490666;39;8917;-61
2024/04/13 12:55:01;;;;;;;;;17.50;14.50;;;;;;;;6489994;46;8878;-63
2024/04/13 13:01:06;;;;;;;;;14.75;14.25;;;;;;;;6490426;39;9519;-62
2024/04/13 13:07:14;;;;;;;;;20.50;18.25;;;;;;;;6488923;31;9069;-63
2024/04/13 13:13:18;;;;;;;;;14.00;12.75;;;;;;;;6490167;39;8861;-63
2024/04/13 13:19:21;;;;;;;;;19.50;18.50;;;;;;;;6489131;46;8897;-61
2024/04/13 13:25:28;;;;;;;;;13.00;13.00;;;;;;;;6489618;46;8889;-63
2024/04/13 13:31:36;;;;;;;;;14.00;13.75;;;;;;;;6489376;46;8870;-61
2024/04/13 13:37:40;;;;;;;;;15.25;14.25;;;;;;;;6490364;31;8845;-63
2024/04/13 13:43:46;;;;;;;;;11.00;11.00;;;;;;;;6490351;39;8838;-63
2024/04/13 13:49:55;;;;;;;;;9.25;9.25;;;;;;;;6489935;39;9040;-62
2024/04/13 13:56:00;;;;;;;;;15.25;14.25;;;;;;;;6490092;46;8874;-62
2024/04/13 14:02:12;;;;;;;;;14.50;13.00;;;;;;;;6489625;46;8981;-62
2024/04/13 14:08:16;;;;;;;;;16.50;15.75;;;;;;;;6489230;39;8854;-61
2024/04/13 14:14:21;;;;;;;;;8.75;8.75;;;;;;;;6489279;39;8881;-61
2024/04/13 14:20:26;;;;;;;;;14.50;14.50;;;;;;;;6489698;39;8854;-62
2024/04/13 14:26:29;;;;;;;;;14.25;14.25;;;;;;;;6488323;46;9051;-61
2024/04/13 14:32:31;;;;;;;;;20.00;16.25;;;;;;;;6489193;31;9001;-62
2024/04/13 14:38:45;;;;;;;;;11.50;11.50;;;;;;;;6488967;31;8897;-62
2024/04/13 14:44:47;;;;;;;;;13.00;12.00;;;;;;;;6489505;39;8964;-63
2024/04/13 14:50:53;;;;;;;;;17.67;15.00;;;;;;;;6488196;31;8905;-62
2024/04/13 14:57:03;;;;;;;;;23.50;22.75;;;;;;;;6489455;46;9027;-63
2024/04/13 15:03:20;;;;;;;;;17.25;17.25;;;;;;;;6488983;39;8999;-63
2024/04/13 15:09:26;;;;;;;;;14.00;13.50;;;;;;;;6488283;39;8984;-61
2024/04/13 15:15:33;;;;;;;;;17.25;16.00;;;;;;;;6490810;39;8865;-62
2024/04/13 15:21:40;;;;;;;;;17.75;17.75;;;;;;;;6490562;39;8954;-62
2024/04/13 15:27:46;;;;;;;;;19.00;17.50;;;;;;;;6490591;46;8889;-63
2024/04/13 15:34:15;;;;;;;;;16.25;15.50;;;;;;;;6490230;46;8885;-62
2024/04/13 15:40:35;;;;;;;;;14.75;13.00;;;;;;;;6489697;39;8881;-63
2024/04/13 15:46:49;;;;;;;;;18.25;16.25;;;;;;;;6490749;39;9044;-62
2024/04/13 15:52:54;;;;;;;;;19.75;18.00;;;;;;;;6491578;39;9011;-62
2024/04/13 15:59:00;;;;;;;;;11.00;9.75;;;;;;;;6490730;39;8886;-62
2024/04/13 16:05:06;;;;;;;;;16.50;15.75;;;;;;;;6490988;39;9005;-63
2024/04/13 16:11:11;;;;;;;;;19.00;16.50;;;;;;;;6490650;39;8926;-62
2024/04/13 16:17:18;;;;;;;;;19.00;16.75;;;;;;;;6490049;46;8897;-62
2024/04/13 16:23:23;;;;;;;;;16.75;16.75;;;;;;;;6491489;31;8922;-62
2024/04/13 16:29:24;;;;;;;;;23.67;19.67;;;;;;;;6490447;39;9036;-60
2024/04/13 16:35:31;;;;;;;;;13.00;11.50;;;;;;;;6490512;31;8925;-64
2024/04/13 16:41:35;;;;;;;;;24.00;21.25;;;;;;;;6490005;31;8925;-63
2024/04/13 16:47:40;;;;;;;;;20.33;19.00;;;;;;;;6490296;39;8926;-63
2024/04/13 16:53:49;;;;;;;;;24.00;23.33;;;;;;;;6490262;39;9571;-62
2024/04/13 16:59:55;;;;;;;;;28.67;28.00;;;;;;;;6489949;46;8854;-63
2024/04/13 17:05:58;;;;;;;;;36.67;33.33;;;;;;;;6489865;39;8948;-63
2024/04/13 17:12:02;;;;;;;;;27.67;25.67;;;;;;;;6488263;46;8972;-63
2024/04/13 17:18:06;;;;;;;;;34.33;27.67;;;;;;;;6489437;39;8889;-62
2024/04/13 17:24:14;;;;;;;;;29.67;25.33;;;;;;;;6490281;39;9643;-62
2024/04/13 17:30:19;;;;;;;;;30.33;26.00;;;;;;;;6488470;46;9019;-62
2024/04/13 17:36:21;;;;;;;;;30.00;29.00;;;;;;;;6489020;39;8997;-63
2024/04/13 17:42:26;;;;;;;;;29.67;26.67;;;;;;;;6489689;31;9031;-62
2024/04/13 17:48:31;;;;;;;;;30.00;28.00;;;;;;;;6489676;39;9088;-63
2024/04/13 17:54:35;;;;;;;;;36.00;31.33;;;;;;;;6489372;46;8993;-61
2024/04/13 18:00:39;;;;;;;;;31.33;30.67;;;;;;;;6489550;39;9736;-62
2024/04/13 18:06:46;;;;;;;;;37.00;34.33;;;;;;;;6488189;31;8916;-63
2024/04/13 18:12:51;;;;;;;;;53.00;44.00;;;;;;;;6489145;39;9601;-62
2024/04/13 18:18:55;;;;;;;;;49.00;42.00;;;;;;;;6489441;46;8880;-63
2024/04/13 18:25:02;;;;;;;;;37.00;34.67;;;;;;;;6489218;47;9040;-62
2024/04/13 18:31:16;;;;;;;;;43.33;34.00;;;;;;;;6489629;39;8860;-61
2024/04/13 18:37:24;;;;;;;;;47.67;38.33;;;;;;;;6489593;39;8866;-61
2024/04/13 18:43:35;;;;;;;;;48.67;37.33;;;;;;;;6488320;39;8960;-61
2024/04/13 18:49:48;;;;;;;;;40.67;36.33;;;;;;;;6492101;31;9636;-63
2024/04/13 18:55:56;;;;;;;;;41.67;34.67;;;;;;;;6491327;46;9023;-62
2024/04/13 19:02:05;;;;;;;;;37.67;34.33;;;;;;;;6489189;46;8949;-63
2024/04/13 19:08:10;;;;;;;;;42.00;35.67;;;;;;;;6490707;46;8943;-62
2024/04/13 19:14:15;;;;;;;;;33.33;32.33;;;;;;;;6490365;31;8906;-62
2024/04/13 19:20:22;;;;;;;;;33.33;30.33;;;;;;;;6490730;46;8861;-62
2024/04/13 19:26:33;;;;;;;;;44.33;37.67;;;;;;;;6490864;39;9649;-63
2024/04/13 19:32:39;;;;;;;;;43.00;36.67;;;;;;;;6491542;39;8896;-62
2024/04/13 19:38:51;;;;;;;;;37.67;33.33;;;;;;;;6490920;46;8913;-62
2024/04/13 19:44:59;;;;;;;;;32.33;30.00;;;;;;;;6490278;46;8939;-62
2024/04/13 19:51:01;;;;;;;;;37.33;32.33;;;;;;;;6490922;39;8914;-63
2024/04/13 19:57:09;;;;;;;;;33.33;30.67;;;;;;;;6489958;39;8931;-63
2024/04/13 20:03:19;;;;;;;;;46.33;37.33;;;;;;;;6491032;46;8978;-62
2024/04/13 20:09:28;;;;;;;;;40.00;35.33;;;;;;;;6490281;31;8999;-61
2024/04/13 20:22:10;;;;;;;;;37.67;34.67;;;;;;;;6489823;39;8951;-61
2024/04/13 20:28:45;;;;;;;;;30.33;30.33;;;;;;;;6490784;39;8882;-61
2024/04/13 20:34:58;;;;;;;;;34.00;31.00;;;;;;;;6490561;39;8900;-61
2024/04/13 20:41:03;;;;;;;;;32.00;30.00;;;;;;;;6489268;46;8870;-61
2024/04/13 20:47:20;;;;;;;;;35.00;32.67;;;;;;;;6490177;39;8957;-64
2024/04/13 20:53:22;;;;;;;;;37.00;34.00;;;;;;;;6489678;46;8952;-62
2024/04/13 20:59:36;;;;;;;;;27.00;22.67;;;;;;;;6490554;39;9615;-61
2024/04/13 21:05:47;;;;;;;;;40.00;33.67;;;;;;;;6489276;46;8934;-62
2024/04/13 21:11:53;;;;;;;;;38.33;34.67;;;;;;;;6490301;39;9353;-62
2024/04/13 21:18:00;;;;;;;;;41.00;35.00;;;;;;;;6489402;39;8878;-62
2024/04/13 21:24:07;;;;;;;;;39.67;36.33;;;;;;;;6490423;31;9473;-63
2024/04/13 21:30:11;;;;;;;;;33.67;32.33;;;;;;;;6489609;39;8873;-62
2024/04/13 21:36:20;;;;;;;;;38.67;35.00;;;;;;;;6489079;31;8992;-61
2024/04/13 21:42:31;;;;;;;;;42.00;34.00;;;;;;;;6489745;39;8922;-63
2024/04/13 21:48:37;;;;;;;;;37.67;34.67;;;;;;;;6488905;39;8928;-61
2024/04/13 21:55:05;;;;;;;;;36.00;34.33;;;;;;;;6490510;39;8874;-62
2024/04/13 22:01:10;;;;;;;;;40.00;35.67;;;;;;;;6488739;46;9011;-62
2024/04/13 22:07:14;;;;;;;;;42.00;34.00;;;;;;;;6489382;39;8952;-62
2024/04/13 22:13:16;;;;;;;;;35.67;31.67;;;;;;;;6489332;39;8897;-62
2024/04/13 22:19:21;;;;;;;;;35.33;34.00;;;;;;;;5679925;36;29002334;-62
2024/04/13 22:25:29;;;;;;;;;40.33;36.00;;;;;;;;6488611;39;8937;-62
2024/04/13 22:31:41;;;;;;;;;25.67;25.67;;;;;;;;6488704;47;8904;-61
2024/04/13 22:37:42;;;;;;;;;30.00;30.00;;;;;;;;6490065;31;9491;-60
2024/04/13 22:43:47;;;;;;;;;31.33;27.00;;;;;;;;6489820;39;8932;-61
2024/04/13 22:49:49;;;;;;;;;28.33;26.00;;;;;;;;6488890;39;9016;-61
2024/04/13 22:55:56;;;;;;;;;28.00;27.33;;;;;;;;6488621;39;8898;-61
2024/04/13 23:02:02;;;;;;;;;31.00;26.33;;;;;;;;6489160;39;10064;-63
2024/04/13 23:08:06;;;;;;;;;30.67;29.00;;;;;;;;6489126;47;8920;-60
2024/04/13 23:14:15;;;;;;;;;29.00;25.00;;;;;;;;6488825;47;8914;-61
2024/04/13 23:20:19;;;;;;;;;27.00;25.00;;;;;;;;6489057;39;8840;-61
2024/04/13 23:26:24;;;;;;;;;30.00;27.00;;;;;;;;6488736;39;9053;-61
2024/04/13 23:32:32;;;;;;;;;24.33;24.33;;;;;;;;6488673;39;8880;-61
2024/04/13 23:38:38;;;;;;;;;25.00;22.00;;;;;;;;6490549;39;8850;-60
2024/04/13 23:44:48;;;;;;;;;20.67;19.33;;;;;;;;6490850;39;8967;-62
2024/04/13 23:50:55;;;;;;;;;21.00;20.00;;;;;;;;6490260;39;8941;-60
2024/04/13 23:57:06;;;;;;;;;22.67;18.33;;;;;;;;6490433;46;8912;-60
